Rechercher aéroport 
image banner adimage banner ad
image banner ad

DAUB - Biskra / Mohamed Khider

Situé à , Algeria

ICAO - DAUB, IATA - BSK

Données fournies par Airmate  

Information générale

Coordonnées: N34°48'6" E5°44'30"
Élévation : 288 feet MSL.
 
Voir autres Aéroports à Biskra Province

Données opérationnelles

Accessible au public
Heure actuelle UTC:
Heure actuelle locale:
Météo
METAR: DAUB 230600Z 02003KT CAVOK 25/13 Q1013
TAF: TAF DAUB 230500Z 2306/2406 32008KT 9999 FEW040 SCT200 PROB30 TEMPO 2306/2312 FEW030TCU PROB40 TEMPO 2312/2322 FEW026CB PROB40 TEMPO 2314/2320 5000 -TSRA
Voir NOTAMs / SUP AIP / TFR affectant cet aéroport [VIEW]
Fréquences de communication: [VIEW]

Pistes:

Identifiant RWYQFULongueur (ft)Largeur (ft)SurfaceLDA (ft)
13130°9469148ASP
31310°10171148

Coordonnées de l'aéroport

Adresse: Algeria

Vue satellite de DAUB